sensor_id;sensor_type;location;lat;lon;timestamp;P1;durP1;ratioP1;P2;durP2;ratioP2
64063;SDS011;50314;50.618;10.642;2022-08-19T00:01:45;7.40;;;5.88;;
64063;SDS011;50314;50.618;10.642;2022-08-19T00:04:13;8.25;;;6.60;;
64063;SDS011;50314;50.618;10.642;2022-08-19T00:06:40;8.40;;;6.93;;
64063;SDS011;50314;50.618;10.642;2022-08-19T00:09:08;9.10;;;6.72;;
64063;SDS011;50314;50.618;10.642;2022-08-19T00:11:36;7.28;;;5.85;;
64063;SDS011;50314;50.618;10.642;2022-08-19T00:14:02;7.22;;;5.82;;
64063;SDS011;50314;50.618;10.642;2022-08-19T00:16:29;7.85;;;6.47;;
64063;SDS011;50314;50.618;10.642;2022-08-19T00:18:55;7.95;;;6.35;;
64063;SDS011;50314;50.618;10.642;2022-08-19T00:21:20;7.57;;;5.95;;
64063;SDS011;50314;50.618;10.642;2022-08-19T00:23:46;9.73;;;6.60;;
64063;SDS011;50314;50.618;10.642;2022-08-19T00:26:12;9.40;;;7.38;;
64063;SDS011;50314;50.618;10.642;2022-08-19T00:28:37;7.97;;;6.07;;
64063;SDS011;50314;50.618;10.642;2022-08-19T00:31:03;8.43;;;6.35;;
64063;SDS011;50314;50.618;10.642;2022-08-19T00:33:29;7.53;;;6.10;;
64063;SDS011;50314;50.618;10.642;2022-08-19T00:35:59;8.32;;;6.03;;
64063;SDS011;50314;50.618;10.642;2022-08-19T00:38:29;8.63;;;6.63;;
64063;SDS011;50314;50.618;10.642;2022-08-19T00:40:55;7.53;;;6.00;;
64063;SDS011;50314;50.618;10.642;2022-08-19T00:43:22;6.45;;;5.43;;
64063;SDS011;50314;50.618;10.642;2022-08-19T00:45:49;7.45;;;5.70;;
64063;SDS011;50314;50.618;10.642;2022-08-19T00:48:15;7.55;;;6.07;;
64063;SDS011;50314;50.618;10.642;2022-08-19T00:50:41;7.05;;;5.70;;
64063;SDS011;50314;50.618;10.642;2022-08-19T00:53:08;7.97;;;6.13;;
64063;SDS011;50314;50.618;10.642;2022-08-19T00:55:35;7.90;;;6.00;;
64063;SDS011;50314;50.618;10.642;2022-08-19T00:58:06;8.10;;;6.22;;
64063;SDS011;50314;50.618;10.642;2022-08-19T01:00:35;7.68;;;5.93;;
64063;SDS011;50314;50.618;10.642;2022-08-19T01:03:02;6.65;;;5.45;;
64063;SDS011;50314;50.618;10.642;2022-08-19T01:05:31;7.43;;;5.63;;
64063;SDS011;50314;50.618;10.642;2022-08-19T01:07:57;7.72;;;5.88;;
64063;SDS011;50314;50.618;10.642;2022-08-19T01:10:27;6.95;;;5.22;;
64063;SDS011;50314;50.618;10.642;2022-08-19T01:12:54;6.85;;;5.13;;
64063;SDS011;50314;50.618;10.642;2022-08-19T01:15:22;7.20;;;5.93;;
64063;SDS011;50314;50.618;10.642;2022-08-19T01:17:52;6.65;;;5.38;;
64063;SDS011;50314;50.618;10.642;2022-08-19T01:20:20;7.40;;;5.82;;
64063;SDS011;50314;50.618;10.642;2022-08-19T01:25:18;6.75;;;5.50;;
64063;SDS011;50314;50.618;10.642;2022-08-19T01:27:48;7.40;;;5.82;;
64063;SDS011;50314;50.618;10.642;2022-08-19T01:30:18;6.78;;;5.35;;
64063;SDS011;50314;50.618;10.642;2022-08-19T01:32:49;7.50;;;5.75;;
64063;SDS011;50314;50.618;10.642;2022-08-19T01:35:15;7.30;;;6.25;;
64063;SDS011;50314;50.618;10.642;2022-08-19T01:40:09;7.93;;;5.70;;
64063;SDS011;50314;50.618;10.642;2022-08-19T01:42:35;7.47;;;6.15;;
64063;SDS011;50314;50.618;10.642;2022-08-19T01:45:00;7.30;;;5.95;;
64063;SDS011;50314;50.618;10.642;2022-08-19T01:47:26;7.80;;;5.60;;
64063;SDS011;50314;50.618;10.642;2022-08-19T01:49:51;7.90;;;5.93;;
64063;SDS011;50314;50.618;10.642;2022-08-19T01:52:17;8.38;;;6.68;;
64063;SDS011;50314;50.618;10.642;2022-08-19T01:54:42;7.30;;;5.35;;
64063;SDS011;50314;50.618;10.642;2022-08-19T01:57:09;9.07;;;6.40;;
64063;SDS011;50314;50.618;10.642;2022-08-19T01:59:37;7.70;;;6.20;;
64063;SDS011;50314;50.618;10.642;2022-08-19T02:02:04;7.63;;;6.22;;
64063;SDS011;50314;50.618;10.642;2022-08-19T02:04:33;8.45;;;6.45;;
64063;SDS011;50314;50.618;10.642;2022-08-19T02:07:00;8.35;;;6.60;;
64063;SDS011;50314;50.618;10.642;2022-08-19T02:09:25;8.68;;;6.65;;
64063;SDS011;50314;50.618;10.642;2022-08-19T02:11:51;7.78;;;6.20;;
64063;SDS011;50314;50.618;10.642;2022-08-19T02:14:16;8.43;;;6.57;;
64063;SDS011;50314;50.618;10.642;2022-08-19T02:16:41;8.80;;;6.80;;
64063;SDS011;50314;50.618;10.642;2022-08-19T02:19:07;7.47;;;5.95;;
64063;SDS011;50314;50.618;10.642;2022-08-19T02:21:32;7.45;;;6.38;;
64063;SDS011;50314;50.618;10.642;2022-08-19T02:23:58;9.25;;;6.80;;
64063;SDS011;50314;50.618;10.642;2022-08-19T02:26:24;8.23;;;6.70;;
64063;SDS011;50314;50.618;10.642;2022-08-19T02:28:51;7.05;;;5.90;;
64063;SDS011;50314;50.618;10.642;2022-08-19T02:31:18;8.38;;;6.35;;
64063;SDS011;50314;50.618;10.642;2022-08-19T02:33:46;8.38;;;6.25;;
64063;SDS011;50314;50.618;10.642;2022-08-19T02:36:13;8.68;;;6.38;;
64063;SDS011;50314;50.618;10.642;2022-08-19T02:38:40;7.43;;;5.95;;
64063;SDS011;50314;50.618;10.642;2022-08-19T02:41:07;7.78;;;5.88;;
64063;SDS011;50314;50.618;10.642;2022-08-19T02:43:37;9.35;;;6.70;;
64063;SDS011;50314;50.618;10.642;2022-08-19T02:46:38;7.80;;;5.68;;
64063;SDS011;50314;50.618;10.642;2022-08-19T02:49:00;7.47;;;6.10;;
64063;SDS011;50314;50.618;10.642;2022-08-19T02:51:29;8.63;;;6.15;;
64063;SDS011;50314;50.618;10.642;2022-08-19T02:53:56;7.18;;;5.90;;
64063;SDS011;50314;50.618;10.642;2022-08-19T02:56:23;7.85;;;6.30;;
64063;SDS011;50314;50.618;10.642;2022-08-19T02:58:50;7.55;;;6.00;;
64063;SDS011;50314;50.618;10.642;2022-08-19T03:01:25;6.53;;;5.75;;
64063;SDS011;50314;50.618;10.642;2022-08-19T03:03:53;7.18;;;5.97;;
64063;SDS011;50314;50.618;10.642;2022-08-19T03:06:19;7.78;;;5.53;;
64063;SDS011;50314;50.618;10.642;2022-08-19T03:08:45;7.00;;;5.82;;
64063;SDS011;50314;50.618;10.642;2022-08-19T03:11:14;6.90;;;5.65;;
64063;SDS011;50314;50.618;10.642;2022-08-19T03:13:44;7.55;;;5.65;;
64063;SDS011;50314;50.618;10.642;2022-08-19T03:16:10;7.00;;;5.72;;
64063;SDS011;50314;50.618;10.642;2022-08-19T03:18:36;7.30;;;5.78;;
64063;SDS011;50314;50.618;10.642;2022-08-19T03:21:02;8.45;;;5.80;;
64063;SDS011;50314;50.618;10.642;2022-08-19T03:23:28;7.40;;;5.70;;
64063;SDS011;50314;50.618;10.642;2022-08-19T03:25:54;7.55;;;5.97;;
64063;SDS011;50314;50.618;10.642;2022-08-19T03:28:19;7.85;;;5.47;;
64063;SDS011;50314;50.618;10.642;2022-08-19T03:30:59;6.97;;;5.03;;
64063;SDS011;50314;50.618;10.642;2022-08-19T03:33:31;8.25;;;6.18;;
64063;SDS011;50314;50.618;10.642;2022-08-19T03:36:03;6.82;;;5.85;;
64063;SDS011;50314;50.618;10.642;2022-08-19T03:38:30;6.55;;;5.45;;
64063;SDS011;50314;50.618;10.642;2022-08-19T03:45:47;6.77;;;5.70;;
64063;SDS011;50314;50.618;10.642;2022-08-19T03:48:14;7.80;;;5.30;;
64063;SDS011;50314;50.618;10.642;2022-08-19T03:50:41;7.65;;;5.70;;
64063;SDS011;50314;50.618;10.642;2022-08-19T03:53:07;6.00;;;5.00;;
64063;SDS011;50314;50.618;10.642;2022-08-19T03:55:34;5.93;;;4.68;;
64063;SDS011;50314;50.618;10.642;2022-08-19T03:58:03;7.03;;;5.63;;
64063;SDS011;50314;50.618;10.642;2022-08-19T04:00:29;6.75;;;5.22;;
64063;SDS011;50314;50.618;10.642;2022-08-19T04:02:54;6.60;;;4.95;;
64063;SDS011;50314;50.618;10.642;2022-08-19T04:05:20;7.07;;;5.25;;
64063;SDS011;50314;50.618;10.642;2022-08-19T04:07:45;7.15;;;5.60;;
64063;SDS011;50314;50.618;10.642;2022-08-19T04:10:11;8.60;;;5.93;;
64063;SDS011;50314;50.618;10.642;2022-08-19T04:12:36;6.53;;;5.40;;
64063;SDS011;50314;50.618;10.642;2022-08-19T04:15:02;7.03;;;5.60;;
64063;SDS011;50314;50.618;10.642;2022-08-19T04:17:28;6.32;;;5.63;;
64063;SDS011;50314;50.618;10.642;2022-08-19T04:19:53;7.15;;;5.80;;
64063;SDS011;50314;50.618;10.642;2022-08-19T04:22:18;7.07;;;5.75;;
64063;SDS011;50314;50.618;10.642;2022-08-19T04:24:44;6.32;;;5.40;;
64063;SDS011;50314;50.618;10.642;2022-08-19T04:27:09;7.07;;;5.53;;
64063;SDS011;50314;50.618;10.642;2022-08-19T04:29:35;8.32;;;5.57;;
64063;SDS011;50314;50.618;10.642;2022-08-19T04:32:00;8.13;;;5.63;;
64063;SDS011;50314;50.618;10.642;2022-08-19T04:34:27;7.50;;;5.60;;
64063;SDS011;50314;50.618;10.642;2022-08-19T04:36:55;6.72;;;5.03;;
64063;SDS011;50314;50.618;10.642;2022-08-19T04:39:23;6.75;;;5.10;;
64063;SDS011;50314;50.618;10.642;2022-08-19T04:42:12;8.23;;;5.65;;
64063;SDS011;50314;50.618;10.642;2022-08-19T04:44:57;6.50;;;5.50;;
64063;SDS011;50314;50.618;10.642;2022-08-19T04:47:23;6.65;;;5.63;;
64063;SDS011;50314;50.618;10.642;2022-08-19T04:49:49;7.13;;;6.43;;
64063;SDS011;50314;50.618;10.642;2022-08-19T04:52:14;7.88;;;6.47;;
64063;SDS011;50314;50.618;10.642;2022-08-19T04:54:40;7.70;;;6.30;;
64063;SDS011;50314;50.618;10.642;2022-08-19T04:57:07;6.78;;;5.63;;
64063;SDS011;50314;50.618;10.642;2022-08-19T04:59:34;7.28;;;5.68;;
64063;SDS011;50314;50.618;10.642;2022-08-19T05:06:53;6.65;;;5.55;;
64063;SDS011;50314;50.618;10.642;2022-08-19T05:09:19;6.32;;;5.18;;
64063;SDS011;50314;50.618;10.642;2022-08-19T05:11:46;6.28;;;5.63;;
64063;SDS011;50314;50.618;10.642;2022-08-19T05:14:12;7.40;;;5.85;;
64063;SDS011;50314;50.618;10.642;2022-08-19T05:16:37;6.60;;;5.40;;
64063;SDS011;50314;50.618;10.642;2022-08-19T05:19:04;6.68;;;5.80;;
64063;SDS011;50314;50.618;10.642;2022-08-19T05:21:48;7.13;;;6.10;;
64063;SDS011;50314;50.618;10.642;2022-08-19T05:24:32;7.55;;;5.55;;
64063;SDS011;50314;50.618;10.642;2022-08-19T05:27:00;6.53;;;5.40;;
64063;SDS011;50314;50.618;10.642;2022-08-19T05:29:27;6.30;;;5.10;;
64063;SDS011;50314;50.618;10.642;2022-08-19T05:31:54;7.80;;;5.38;;
64063;SDS011;50314;50.618;10.642;2022-08-19T05:34:20;7.13;;;5.40;;
64063;SDS011;50314;50.618;10.642;2022-08-19T05:36:48;6.75;;;5.65;;
64063;SDS011;50314;50.618;10.642;2022-08-19T05:39:17;7.15;;;6.20;;
64063;SDS011;50314;50.618;10.642;2022-08-19T05:41:49;8.82;;;6.22;;
64063;SDS011;50314;50.618;10.642;2022-08-19T05:44:17;8.02;;;6.32;;
64063;SDS011;50314;50.618;10.642;2022-08-19T05:46:45;8.07;;;6.57;;
64063;SDS011;50314;50.618;10.642;2022-08-19T05:49:17;6.88;;;5.97;;
64063;SDS011;50314;50.618;10.642;2022-08-19T05:51:43;7.95;;;6.43;;
64063;SDS011;50314;50.618;10.642;2022-08-19T05:54:09;7.20;;;6.00;;
64063;SDS011;50314;50.618;10.642;2022-08-19T05:56:37;7.30;;;6.20;;
64063;SDS011;50314;50.618;10.642;2022-08-19T05:59:03;7.72;;;6.03;;
64063;SDS011;50314;50.618;10.642;2022-08-19T06:01:34;7.60;;;5.88;;
64063;SDS011;50314;50.618;10.642;2022-08-19T06:08:51;6.50;;;5.50;;
64063;SDS011;50314;50.618;10.642;2022-08-19T06:11:21;7.28;;;5.93;;
64063;SDS011;50314;50.618;10.642;2022-08-19T06:14:05;6.20;;;5.57;;
64063;SDS011;50314;50.618;10.642;2022-08-19T06:16:36;6.57;;;5.47;;
64063;SDS011;50314;50.618;10.642;2022-08-19T06:19:04;6.75;;;5.50;;
64063;SDS011;50314;50.618;10.642;2022-08-19T06:21:32;7.82;;;5.80;;
64063;SDS011;50314;50.618;10.642;2022-08-19T06:28:51;5.93;;;4.85;;
64063;SDS011;50314;50.618;10.642;2022-08-19T06:31:18;7.80;;;5.20;;
64063;SDS011;50314;50.618;10.642;2022-08-19T06:33:46;6.57;;;5.18;;
64063;SDS011;50314;50.618;10.642;2022-08-19T06:39:07;5.57;;;4.93;;
64063;SDS011;50314;50.618;10.642;2022-08-19T06:41:38;6.30;;;5.35;;
64063;SDS011;50314;50.618;10.642;2022-08-19T06:44:06;6.45;;;5.43;;
64063;SDS011;50314;50.618;10.642;2022-08-19T06:46:32;6.35;;;5.43;;
64063;SDS011;50314;50.618;10.642;2022-08-19T06:48:58;7.28;;;5.65;;
64063;SDS011;50314;50.618;10.642;2022-08-19T06:51:24;6.47;;;5.50;;
64063;SDS011;50314;50.618;10.642;2022-08-19T06:53:50;9.15;;;6.82;;
64063;SDS011;50314;50.618;10.642;2022-08-19T06:56:19;8.27;;;7.32;;
64063;SDS011;50314;50.618;10.642;2022-08-19T06:58:49;10.38;;;8.20;;
64063;SDS011;50314;50.618;10.642;2022-08-19T07:01:17;8.80;;;6.68;;
64063;SDS011;50314;50.618;10.642;2022-08-19T07:03:44;8.07;;;6.90;;
64063;SDS011;50314;50.618;10.642;2022-08-19T07:08:39;8.80;;;6.63;;
64063;SDS011;50314;50.618;10.642;2022-08-19T07:11:09;8.95;;;7.30;;
64063;SDS011;50314;50.618;10.642;2022-08-19T07:13:38;8.95;;;7.43;;
64063;SDS011;50314;50.618;10.642;2022-08-19T07:18:34;7.97;;;6.97;;
64063;SDS011;50314;50.618;10.642;2022-08-19T07:21:07;8.13;;;7.20;;
64063;SDS011;50314;50.618;10.642;2022-08-19T07:23:35;10.20;;;7.85;;
64063;SDS011;50314;50.618;10.642;2022-08-19T07:26:08;9.25;;;7.60;;
64063;SDS011;50314;50.618;10.642;2022-08-19T07:28:36;8.85;;;7.60;;
64063;SDS011;50314;50.618;10.642;2022-08-19T07:31:07;9.55;;;8.35;;
64063;SDS011;50314;50.618;10.642;2022-08-19T07:33:38;9.68;;;7.38;;
64063;SDS011;50314;50.618;10.642;2022-08-19T07:36:05;10.10;;;7.80;;
64063;SDS011;50314;50.618;10.642;2022-08-19T07:38:32;8.50;;;7.03;;
64063;SDS011;50314;50.618;10.642;2022-08-19T07:40:59;8.18;;;6.93;;
64063;SDS011;50314;50.618;10.642;2022-08-19T07:43:25;9.15;;;7.18;;
64063;SDS011;50314;50.618;10.642;2022-08-19T07:45:52;8.63;;;6.88;;
64063;SDS011;50314;50.618;10.642;2022-08-19T07:48:21;7.50;;;6.25;;
64063;SDS011;50314;50.618;10.642;2022-08-19T07:50:50;7.88;;;6.95;;
64063;SDS011;50314;50.618;10.642;2022-08-19T07:53:20;8.00;;;6.60;;
64063;SDS011;50314;50.618;10.642;2022-08-19T07:55:49;8.27;;;6.25;;
64063;SDS011;50314;50.618;10.642;2022-08-19T07:58:16;7.38;;;6.47;;
64063;SDS011;50314;50.618;10.642;2022-08-19T08:00:44;7.60;;;6.30;;
64063;SDS011;50314;50.618;10.642;2022-08-19T08:03:11;6.93;;;6.03;;
64063;SDS011;50314;50.618;10.642;2022-08-19T08:05:37;7.32;;;6.05;;
64063;SDS011;50314;50.618;10.642;2022-08-19T08:08:21;6.97;;;5.97;;
64063;SDS011;50314;50.618;10.642;2022-08-19T08:13:32;7.25;;;5.45;;
64063;SDS011;50314;50.618;10.642;2022-08-19T08:16:00;7.32;;;5.90;;
64063;SDS011;50314;50.618;10.642;2022-08-19T08:18:27;8.32;;;6.75;;
64063;SDS011;50314;50.618;10.642;2022-08-19T08:20:52;8.25;;;5.90;;
64063;SDS011;50314;50.618;10.642;2022-08-19T08:23:18;7.03;;;5.10;;
64063;SDS011;50314;50.618;10.642;2022-08-19T08:25:54;6.30;;;5.00;;
64063;SDS011;50314;50.618;10.642;2022-08-19T08:28:22;7.38;;;5.93;;
64063;SDS011;50314;50.618;10.642;2022-08-19T08:30:49;7.00;;;5.25;;
64063;SDS011;50314;50.618;10.642;2022-08-19T08:33:19;7.28;;;5.45;;
64063;SDS011;50314;50.618;10.642;2022-08-19T08:35:46;5.70;;;4.60;;
64063;SDS011;50314;50.618;10.642;2022-08-19T08:38:12;5.47;;;4.78;;
64063;SDS011;50314;50.618;10.642;2022-08-19T08:40:45;6.57;;;4.47;;
64063;SDS011;50314;50.618;10.642;2022-08-19T08:45:53;6.63;;;5.07;;
64063;SDS011;50314;50.618;10.642;2022-08-19T08:51:12;6.00;;;4.80;;
64063;SDS011;50314;50.618;10.642;2022-08-19T08:53:43;5.25;;;4.38;;
64063;SDS011;50314;50.618;10.642;2022-08-19T08:56:11;5.65;;;3.95;;
64063;SDS011;50314;50.618;10.642;2022-08-19T09:01:25;4.80;;;3.72;;
64063;SDS011;50314;50.618;10.642;2022-08-19T09:03:50;6.05;;;4.55;;
64063;SDS011;50314;50.618;10.642;2022-08-19T09:09:05;7.20;;;4.35;;
64063;SDS011;50314;50.618;10.642;2022-08-19T09:14:32;6.18;;;3.92;;
64063;SDS011;50314;50.618;10.642;2022-08-19T09:16:58;5.55;;;4.57;;
64063;SDS011;50314;50.618;10.642;2022-08-19T09:19:24;5.25;;;4.03;;
64063;SDS011;50314;50.618;10.642;2022-08-19T09:21:50;5.18;;;4.22;;
64063;SDS011;50314;50.618;10.642;2022-08-19T09:24:15;5.53;;;4.50;;
64063;SDS011;50314;50.618;10.642;2022-08-19T09:26:41;5.35;;;3.88;;
64063;SDS011;50314;50.618;10.642;2022-08-19T09:29:08;4.78;;;3.72;;
64063;SDS011;50314;50.618;10.642;2022-08-19T09:31:34;4.78;;;3.92;;
64063;SDS011;50314;50.618;10.642;2022-08-19T09:34:00;4.72;;;4.10;;
64063;SDS011;50314;50.618;10.642;2022-08-19T09:36:29;4.63;;;3.45;;
64063;SDS011;50314;50.618;10.642;2022-08-19T09:39:00;4.13;;;3.60;;
64063;SDS011;50314;50.618;10.642;2022-08-19T09:41:28;5.03;;;3.75;;
64063;SDS011;50314;50.618;10.642;2022-08-19T09:43:54;4.82;;;4.10;;
64063;SDS011;50314;50.618;10.642;2022-08-19T09:46:21;5.70;;;3.97;;
64063;SDS011;50314;50.618;10.642;2022-08-19T09:48:48;4.93;;;3.20;;
64063;SDS011;50314;50.618;10.642;2022-08-19T09:51:17;4.22;;;3.30;;
64063;SDS011;50314;50.618;10.642;2022-08-19T09:53:45;3.33;;;3.03;;
64063;SDS011;50314;50.618;10.642;2022-08-19T09:56:12;4.05;;;3.35;;
64063;SDS011;50314;50.618;10.642;2022-08-19T09:58:38;4.15;;;3.15;;
64063;SDS011;50314;50.618;10.642;2022-08-19T10:01:04;3.40;;;2.92;;
64063;SDS011;50314;50.618;10.642;2022-08-19T10:03:31;3.95;;;3.38;;
64063;SDS011;50314;50.618;10.642;2022-08-19T10:05:58;3.70;;;3.25;;
64063;SDS011;50314;50.618;10.642;2022-08-19T10:08:26;3.97;;;3.00;;
64063;SDS011;50314;50.618;10.642;2022-08-19T10:10:54;4.07;;;3.30;;
64063;SDS011;50314;50.618;10.642;2022-08-19T10:13:22;4.15;;;3.22;;
64063;SDS011;50314;50.618;10.642;2022-08-19T10:15:52;4.38;;;3.15;;
64063;SDS011;50314;50.618;10.642;2022-08-19T10:18:20;4.10;;;3.20;;
64063;SDS011;50314;50.618;10.642;2022-08-19T10:20:48;5.32;;;3.28;;
64063;SDS011;50314;50.618;10.642;2022-08-19T10:23:14;3.50;;;2.60;;
64063;SDS011;50314;50.618;10.642;2022-08-19T10:25:41;4.05;;;2.85;;
64063;SDS011;50314;50.618;10.642;2022-08-19T10:28:07;4.65;;;3.05;;
64063;SDS011;50314;50.618;10.642;2022-08-19T10:30:35;4.90;;;2.65;;
64063;SDS011;50314;50.618;10.642;2022-08-19T10:33:00;4.20;;;2.83;;
64063;SDS011;50314;50.618;10.642;2022-08-19T10:35:26;3.75;;;2.55;;
64063;SDS011;50314;50.618;10.642;2022-08-19T10:37:53;3.05;;;2.38;;
64063;SDS011;50314;50.618;10.642;2022-08-19T10:40:18;3.55;;;2.25;;
64063;SDS011;50314;50.618;10.642;2022-08-19T10:42:44;3.90;;;2.20;;
64063;SDS011;50314;50.618;10.642;2022-08-19T10:45:09;3.58;;;2.22;;
64063;SDS011;50314;50.618;10.642;2022-08-19T10:47:35;2.88;;;1.98;;
64063;SDS011;50314;50.618;10.642;2022-08-19T10:50:02;3.58;;;2.10;;
64063;SDS011;50314;50.618;10.642;2022-08-19T10:52:48;2.33;;;1.88;;
64063;SDS011;50314;50.618;10.642;2022-08-19T10:55:14;2.63;;;1.60;;
64063;SDS011;50314;50.618;10.642;2022-08-19T10:57:58;2.25;;;1.63;;
64063;SDS011;50314;50.618;10.642;2022-08-19T11:00:24;2.47;;;1.77;;
64063;SDS011;50314;50.618;10.642;2022-08-19T11:02:50;2.88;;;1.88;;
64063;SDS011;50314;50.618;10.642;2022-08-19T11:05:16;3.42;;;1.75;;
64063;SDS011;50314;50.618;10.642;2022-08-19T11:07:42;2.65;;;1.65;;
64063;SDS011;50314;50.618;10.642;2022-08-19T11:10:10;2.15;;;1.48;;
64063;SDS011;50314;50.618;10.642;2022-08-19T11:12:37;2.75;;;1.40;;
64063;SDS011;50314;50.618;10.642;2022-08-19T11:15:07;2.72;;;1.45;;
64063;SDS011;50314;50.618;10.642;2022-08-19T11:17:34;1.55;;;1.27;;
64063;SDS011;50314;50.618;10.642;2022-08-19T11:20:00;1.55;;;1.13;;
64063;SDS011;50314;50.618;10.642;2022-08-19T11:22:29;1.85;;;1.42;;
64063;SDS011;50314;50.618;10.642;2022-08-19T11:24:55;2.15;;;1.30;;
64063;SDS011;50314;50.618;10.642;2022-08-19T11:27:20;1.70;;;1.30;;
64063;SDS011;50314;50.618;10.642;2022-08-19T11:29:46;1.25;;;0.98;;
64063;SDS011;50314;50.618;10.642;2022-08-19T11:32:11;1.80;;;1.20;;
64063;SDS011;50314;50.618;10.642;2022-08-19T11:34:38;1.90;;;1.10;;
64063;SDS011;50314;50.618;10.642;2022-08-19T11:37:04;1.63;;;1.17;;
64063;SDS011;50314;50.618;10.642;2022-08-19T11:39:31;1.65;;;1.17;;
64063;SDS011;50314;50.618;10.642;2022-08-19T11:41:57;0.93;;;0.88;;
64063;SDS011;50314;50.618;10.642;2022-08-19T11:44:24;1.20;;;1.00;;
64063;SDS011;50314;50.618;10.642;2022-08-19T11:46:50;2.80;;;0.98;;
64063;SDS011;50314;50.618;10.642;2022-08-19T11:49:17;2.17;;;1.17;;
64063;SDS011;50314;50.618;10.642;2022-08-19T11:51:44;1.20;;;1.10;;
64063;SDS011;50314;50.618;10.642;2022-08-19T11:54:11;3.03;;;1.00;;
64063;SDS011;50314;50.618;10.642;2022-08-19T11:56:39;1.67;;;1.10;;
64063;SDS011;50314;50.618;10.642;2022-08-19T12:01:31;1.85;;;1.30;;
64063;SDS011;50314;50.618;10.642;2022-08-19T12:03:56;1.65;;;1.23;;
64063;SDS011;50314;50.618;10.642;2022-08-19T12:06:24;1.25;;;1.02;;
64063;SDS011;50314;50.618;10.642;2022-08-19T12:08:53;2.40;;;1.25;;
64063;SDS011;50314;50.618;10.642;2022-08-19T12:11:22;2.65;;;1.45;;
64063;SDS011;50314;50.618;10.642;2022-08-19T12:13:48;4.10;;;1.33;;
64063;SDS011;50314;50.618;10.642;2022-08-19T12:16:16;1.33;;;1.13;;
64063;SDS011;50314;50.618;10.642;2022-08-19T12:18:44;1.38;;;1.02;;
64063;SDS011;50314;50.618;10.642;2022-08-19T12:21:14;1.10;;;0.93;;
64063;SDS011;50314;50.618;10.642;2022-08-19T12:23:42;1.23;;;1.10;;
64063;SDS011;50314;50.618;10.642;2022-08-19T12:26:09;1.20;;;1.10;;
64063;SDS011;50314;50.618;10.642;2022-08-19T12:28:35;1.58;;;1.23;;
64063;SDS011;50314;50.618;10.642;2022-08-19T12:31:00;1.50;;;1.10;;
64063;SDS011;50314;50.618;10.642;2022-08-19T12:33:26;2.45;;;1.30;;
64063;SDS011;50314;50.618;10.642;2022-08-19T12:35:53;1.80;;;1.08;;
64063;SDS011;50314;50.618;10.642;2022-08-19T12:38:19;1.45;;;1.20;;
64063;SDS011;50314;50.618;10.642;2022-08-19T12:40:45;2.22;;;1.10;;
64063;SDS011;50314;50.618;10.642;2022-08-19T12:43:11;1.38;;;1.02;;
64063;SDS011;50314;50.618;10.642;2022-08-19T12:45:38;1.55;;;1.23;;
64063;SDS011;50314;50.618;10.642;2022-08-19T12:48:04;1.10;;;0.95;;
64063;SDS011;50314;50.618;10.642;2022-08-19T12:50:30;1.67;;;1.15;;
64063;SDS011;50314;50.618;10.642;2022-08-19T12:52:55;2.03;;;1.25;;
64063;SDS011;50314;50.618;10.642;2022-08-19T12:55:22;1.40;;;1.08;;
64063;SDS011;50314;50.618;10.642;2022-08-19T12:57:47;1.67;;;1.15;;
64063;SDS011;50314;50.618;10.642;2022-08-19T13:00:15;1.95;;;1.20;;
64063;SDS011;50314;50.618;10.642;2022-08-19T13:02:46;1.13;;;1.00;;
64063;SDS011;50314;50.618;10.642;2022-08-19T13:05:19;1.58;;;1.08;;
64063;SDS011;50314;50.618;10.642;2022-08-19T13:07:48;1.65;;;1.33;;
64063;SDS011;50314;50.618;10.642;2022-08-19T13:10:15;1.23;;;1.08;;
64063;SDS011;50314;50.618;10.642;2022-08-19T13:12:42;1.67;;;1.30;;
64063;SDS011;50314;50.618;10.642;2022-08-19T13:15:09;1.52;;;1.20;;
64063;SDS011;50314;50.618;10.642;2022-08-19T13:17:35;1.23;;;1.02;;
64063;SDS011;50314;50.618;10.642;2022-08-19T13:20:02;1.63;;;1.23;;
64063;SDS011;50314;50.618;10.642;2022-08-19T13:22:28;1.52;;;1.20;;
64063;SDS011;50314;50.618;10.642;2022-08-19T13:24:54;1.45;;;1.02;;
64063;SDS011;50314;50.618;10.642;2022-08-19T13:27:19;1.45;;;1.00;;
64063;SDS011;50314;50.618;10.642;2022-08-19T13:29:45;1.23;;;1.02;;
64063;SDS011;50314;50.618;10.642;2022-08-19T13:32:29;1.60;;;1.17;;
64063;SDS011;50314;50.618;10.642;2022-08-19T13:35:13;1.63;;;1.15;;
64063;SDS011;50314;50.618;10.642;2022-08-19T13:37:40;1.33;;;1.23;;
64063;SDS011;50314;50.618;10.642;2022-08-19T13:40:10;1.52;;;1.08;;
64063;SDS011;50314;50.618;10.642;2022-08-19T13:42:40;1.60;;;1.10;;
64063;SDS011;50314;50.618;10.642;2022-08-19T13:47:33;1.38;;;1.02;;
64063;SDS011;50314;50.618;10.642;2022-08-19T13:50:11;1.33;;;1.10;;
64063;SDS011;50314;50.618;10.642;2022-08-19T13:52:38;1.63;;;1.10;;
64063;SDS011;50314;50.618;10.642;2022-08-19T13:55:04;2.10;;;1.20;;
64063;SDS011;50314;50.618;10.642;2022-08-19T13:57:31;1.63;;;1.10;;
64063;SDS011;50314;50.618;10.642;2022-08-19T13:59:57;0.80;;;0.80;;
64063;SDS011;50314;50.618;10.642;2022-08-19T14:02:23;1.40;;;1.05;;
64063;SDS011;50314;50.618;10.642;2022-08-19T14:04:49;1.58;;;1.02;;
64063;SDS011;50314;50.618;10.642;2022-08-19T14:07:15;0.80;;;0.80;;
64063;SDS011;50314;50.618;10.642;2022-08-19T14:09:40;1.40;;;0.90;;
64063;SDS011;50314;50.618;10.642;2022-08-19T14:12:05;1.23;;;1.08;;
64063;SDS011;50314;50.618;10.642;2022-08-19T14:14:31;1.65;;;1.00;;
64063;SDS011;50314;50.618;10.642;2022-08-19T14:16:57;1.30;;;0.90;;
64063;SDS011;50314;50.618;10.642;2022-08-19T14:19:22;1.00;;;0.90;;
64063;SDS011;50314;50.618;10.642;2022-08-19T14:21:48;1.30;;;1.10;;
64063;SDS011;50314;50.618;10.642;2022-08-19T14:24:13;1.80;;;1.23;;
64063;SDS011;50314;50.618;10.642;2022-08-19T14:26:39;2.78;;;0.90;;
64063;SDS011;50314;50.618;10.642;2022-08-19T14:29:04;1.55;;;1.10;;
64063;SDS011;50314;50.618;10.642;2022-08-19T14:31:29;1.55;;;1.10;;
64063;SDS011;50314;50.618;10.642;2022-08-19T14:33:55;1.38;;;0.90;;
64063;SDS011;50314;50.618;10.642;2022-08-19T14:36:20;1.13;;;1.00;;
64063;SDS011;50314;50.618;10.642;2022-08-19T14:38:46;1.10;;;0.90;;
64063;SDS011;50314;50.618;10.642;2022-08-19T14:41:18;1.10;;;1.00;;
64063;SDS011;50314;50.618;10.642;2022-08-19T14:43:45;1.08;;;1.00;;
64063;SDS011;50314;50.618;10.642;2022-08-19T14:46:14;1.95;;;1.20;;
64063;SDS011;50314;50.618;10.642;2022-08-19T14:48:40;7.22;;;1.52;;
64063;SDS011;50314;50.618;10.642;2022-08-19T14:51:06;4.22;;;1.30;;
64063;SDS011;50314;50.618;10.642;2022-08-19T14:53:32;3.35;;;1.30;;
64063;SDS011;50314;50.618;10.642;2022-08-19T14:56:01;1.98;;;1.30;;
64063;SDS011;50314;50.618;10.642;2022-08-19T14:58:32;3.35;;;1.58;;
64063;SDS011;50314;50.618;10.642;2022-08-19T15:00:58;2.63;;;1.45;;
64063;SDS011;50314;50.618;10.642;2022-08-19T15:03:28;2.15;;;1.27;;
64063;SDS011;50314;50.618;10.642;2022-08-19T15:05:54;1.98;;;1.23;;
64063;SDS011;50314;50.618;10.642;2022-08-19T15:08:20;1.45;;;1.20;;
64063;SDS011;50314;50.618;10.642;2022-08-19T15:10:47;2.03;;;1.20;;
64063;SDS011;50314;50.618;10.642;2022-08-19T15:13:12;2.75;;;1.60;;
64063;SDS011;50314;50.618;10.642;2022-08-19T15:15:38;1.83;;;1.30;;
64063;SDS011;50314;50.618;10.642;2022-08-19T15:18:04;1.75;;;1.33;;
64063;SDS011;50314;50.618;10.642;2022-08-19T15:20:32;1.30;;;1.20;;
64063;SDS011;50314;50.618;10.642;2022-08-19T15:23:00;1.63;;;1.50;;
64063;SDS011;50314;50.618;10.642;2022-08-19T15:25:25;2.22;;;1.30;;
64063;SDS011;50314;50.618;10.642;2022-08-19T15:27:52;2.78;;;1.27;;
64063;SDS011;50314;50.618;10.642;2022-08-19T15:30:19;2.38;;;1.40;;